»·PEaware :: N7359T KTOA-KVNY

N7359T :: KTOA-KVNY

FLIGHT INFORMATION

Flight Status: Arrived
Operator: Privately registered:
United States
More flights under this callsign
Pilot: Utku A. (15598)
Aircraft: CESSNA T210 TURBO CENTURION
(T210)
More flights by this aircraft type
Origin: KTOA Zamperini
United States
Destination: KVNY Van Nuys
United States
More flights between these airports :: More routes between these airports
Route: LAX170 LIMBO V64 SMO125 SMO SMO317 CANOG
File this flight plan on PilotEdge
Remarks: SKY HIGH CHARTERS NEW HIRE CHECKRIDE
Altitude:
(Current/Filed)
4,000ft
Speed:
(Current/Filed)
160kts
Departed: 09-Oct-18 07:34 PM
Arrived: 09-Oct-18 08:35 PM
Distance/Time
Traveled:
25nm/1:00
Distance/Time
To Go:
Arrived

Flight Plot

Page will automatically refresh every two minutes.

Flight plan parsing failed; only flown route is shown


Map Options




Map Legend


Flown Route
Filed Route
Departure Airport
Arrival Airport
Navaid (VOR, NDB)
Fix

Horizontal Profiles

Position Reports

Time Latitude Longitude Heading Altitude Ground
Speed
09-Oct-18 19:10 33.801601 -118.341420 218 98ft 0kts
09-Oct-18 19:11 33.801601 -118.341420 218 98ft 0kts
09-Oct-18 19:12 33.801601 -118.341420 218 98ft 0kts
09-Oct-18 19:13 33.801601 -118.341420 218 98ft 0kts
09-Oct-18 19:14 33.801601 -118.341420 219 98ft 0kts
09-Oct-18 19:15 33.801601 -118.341420 219 98ft 0kts
09-Oct-18 19:16 33.801601 -118.341420 219 98ft 0kts
09-Oct-18 19:17 33.801601 -118.341420 219 98ft 0kts
09-Oct-18 19:18 33.801601 -118.341420 219 98ft 0kts
09-Oct-18 19:19 33.801601 -118.341420 219 98ft 0kts
09-Oct-18 19:20 33.801601 -118.341420 219 98ft 0kts
09-Oct-18 19:21 33.801601 -118.341420 219 98ft 0kts
09-Oct-18 19:22 33.801601 -118.341420 219 98ft 0kts
09-Oct-18 19:23 33.801601 -118.341420 219 98ft 0kts
09-Oct-18 19:24 33.801601 -118.341420 219 98ft 0kts
09-Oct-18 19:25 33.801601 -118.341420 219 98ft 0kts
09-Oct-18 19:26 33.801601 -118.341420 219 98ft 0kts
09-Oct-18 19:27 33.801585 -118.341432 208 98ft 1kts
09-Oct-18 19:28 33.800322 -118.339188 129 98ft 14kts
09-Oct-18 19:29 33.798168 -118.335941 130 98ft 10kts
09-Oct-18 19:30 33.798363 -118.333972 36 98ft 7kts
09-Oct-18 19:31 33.799051 -118.333344 61 98ft 0kts
09-Oct-18 19:32 33.799051 -118.333344 61 98ft 0kts
09-Oct-18 19:33 33.799051 -118.333344 61 98ft 0kts
09-Oct-18 19:34 33.799051 -118.333344 61 98ft 0kts
09-Oct-18 19:35 33.799051 -118.333344 61 98ft 0kts
09-Oct-18 19:36 33.802446 -118.337195 306 144ft 86kts
09-Oct-18 19:37 33.817430 -118.363285 300 1831ft 118kts
09-Oct-18 19:38 33.836645 -118.400006 301 2986ft 116kts
09-Oct-18 19:39 33.849587 -118.432448 242 3976ft 124kts
09-Oct-18 19:40 33.812246 -118.436670 186 4005ft 155kts
09-Oct-18 19:41 33.768563 -118.440995 183 4008ft 160kts
09-Oct-18 19:42 33.724986 -118.437104 165 4201ft 156kts
09-Oct-18 19:43 33.719364 -118.389242 61 3781ft 164kts
09-Oct-18 19:44 33.749592 -118.353185 26 4020ft 158kts
09-Oct-18 19:45 33.771111 -118.309072 88 3985ft 170kts
09-Oct-18 19:46 33.773002 -118.252770 91 3997ft 171kts
09-Oct-18 19:47 33.804373 -118.235928 307 3942ft 155kts
09-Oct-18 19:48 33.834533 -118.274142 316 4050ft 162kts
09-Oct-18 19:49 33.868932 -118.309019 318 3968ft 161kts
09-Oct-18 19:50 33.902994 -118.343474 316 4050ft 151kts
09-Oct-18 19:51 33.935317 -118.379896 316 4060ft 163kts
09-Oct-18 19:52 33.971111 -118.415204 316 4032ft 167kts
09-Oct-18 19:53 34.006201 -118.452700 316 4022ft 169kts
09-Oct-18 19:54 34.046512 -118.480961 331 4097ft 172kts
09-Oct-18 19:55 34.089104 -118.509166 327 3974ft 173kts
09-Oct-18 19:56 34.129597 -118.538963 328 3990ft 169kts
09-Oct-18 19:57 34.173551 -118.557388 347 3993ft 169kts
09-Oct-18 19:58 34.219709 -118.567934 350 3943ft 169kts
09-Oct-18 19:59 34.265637 -118.578920 349 3898ft 170kts
09-Oct-18 20:00 34.308054 -118.588165 350 4945ft 147kts
09-Oct-18 20:01 34.352334 -118.599567 350 5020ft 173kts
09-Oct-18 20:02 34.400010 -118.611779 349 5042ft 176kts
09-Oct-18 20:03 34.446053 -118.623613 348 5071ft 159kts
09-Oct-18 20:04 34.487754 -118.619939 51 5005ft 152kts
09-Oct-18 20:05 34.497671 -118.575633 90 5000ft 124kts
09-Oct-18 20:06 34.479353 -118.544364 139 5034ft 112kts
09-Oct-18 20:07 34.455329 -118.520640 141 5033ft 113kts
09-Oct-18 20:08 34.425171 -118.511305 174 4992ft 117kts
09-Oct-18 20:09 34.393183 -118.507826 174 4650ft 115kts
09-Oct-18 20:10 34.361375 -118.504985 173 4046ft 117kts
09-Oct-18 20:11 34.329293 -118.502027 173 3760ft 107kts
09-Oct-18 20:12 34.298448 -118.498871 173 2933ft 109kts
09-Oct-18 20:13 34.267843 -118.495998 174 2156ft 110kts
09-Oct-18 20:14 34.238575 -118.493029 174 1438ft 105kts
09-Oct-18 20:15 34.207681 -118.490049 175 1404ft 131kts
09-Oct-18 20:16 34.173101 -118.477229 160 2311ft 136kts
09-Oct-18 20:17 34.136192 -118.466787 166 3241ft 137kts
09-Oct-18 20:18 34.098809 -118.457028 170 4173ft 138kts
09-Oct-18 20:19 34.060655 -118.454205 182 5039ft 142kts
09-Oct-18 20:20 34.020438 -118.461147 199 4682ft 154kts
09-Oct-18 20:21 34.007011 -118.507661 261 5050ft 157kts
09-Oct-18 20:22 34.013246 -118.556717 277 5035ft 143kts
09-Oct-18 20:23 34.020331 -118.603935 280 5056ft 141kts
09-Oct-18 20:24 34.029756 -118.647164 285 4597ft 119kts
09-Oct-18 20:25 34.039836 -118.684952 313 3986ft 128kts
09-Oct-18 20:26 34.074524 -118.689827 0 3946ft 128kts
09-Oct-18 20:27 34.110608 -118.688555 358 3948ft 131kts
09-Oct-18 20:28 34.146577 -118.688571 357 4028ft 128kts
09-Oct-18 20:29 34.182803 -118.688144 7 3960ft 132kts
09-Oct-18 20:30 34.202316 -118.655128 92 3974ft 129kts
09-Oct-18 20:31 34.200888 -118.615297 86 3719ft 116kts
09-Oct-18 20:32 34.200453 -118.579042 89 2981ft 103kts
09-Oct-18 20:33 34.200268 -118.544496 89 2129ft 101kts
09-Oct-18 20:34 34.199784 -118.511665 89 1424ft 101kts
09-Oct-18 20:35 34.217607 -118.500958 357 1300ft 86kts
09-Oct-18 20:36 34.218498 -118.491261 174 971ft 81kts
09-Oct-18 20:37 34.206687 -118.490120 194 806ft 13kts
09-Oct-18 20:38 34.205308 -118.491123 175 806ft 7kts
09-Oct-18 20:39 34.203300 -118.491396 269 806ft 0kts
09-Oct-18 20:40 34.203514 -118.491541 357 806ft 0kts
09-Oct-18 20:41 34.203514 -118.491541 357 806ft 0kts
09-Oct-18 20:42 34.203514 -118.491541 357 806ft 0kts
09-Oct-18 20:43 34.203514 -118.491541 357 806ft 0kts
09-Oct-18 20:44 34.203514 -118.491541 357 806ft 0kts
09-Oct-18 20:45 34.203514 -118.491541 357 806ft 0kts
09-Oct-18 20:46 34.203514 -118.491541 357 806ft 0kts
09-Oct-18 20:47 34.203514 -118.491541 357 806ft 0kts

Navigation Log

Ident Type
Flight plan parsing failed, navigation log unavailable